sensor_id;sensor_type;location;lat;lon;timestamp;temperature;humidity
35111;DHT22;21290;50.158;8.658;2022-07-22T00:00:30;18.70;99.90
35111;DHT22;21290;50.158;8.658;2022-07-22T00:02:56;18.70;99.90
35111;DHT22;21290;50.158;8.658;2022-07-22T00:05:35;18.80;99.90
35111;DHT22;21290;50.158;8.658;2022-07-22T00:08:02;18.70;99.90
35111;DHT22;21290;50.158;8.658;2022-07-22T00:10:29;18.70;99.90
35111;DHT22;21290;50.158;8.658;2022-07-22T00:12:56;18.70;99.90
35111;DHT22;21290;50.158;8.658;2022-07-22T00:15:26;18.60;99.90
35111;DHT22;21290;50.158;8.658;2022-07-22T00:17:56;18.70;99.90
35111;DHT22;21290;50.158;8.658;2022-07-22T00:20:23;18.60;99.90
35111;DHT22;21290;50.158;8.658;2022-07-22T00:22:52;18.60;99.90
35111;DHT22;21290;50.158;8.658;2022-07-22T00:25:32;18.60;99.90
35111;DHT22;21290;50.158;8.658;2022-07-22T00:27:59;18.50;99.90
35111;DHT22;21290;50.158;8.658;2022-07-22T00:30:32;18.50;99.90
35111;DHT22;21290;50.158;8.658;2022-07-22T00:32:58;18.50;99.90
35111;DHT22;21290;50.158;8.658;2022-07-22T00:35:46;18.40;99.90
35111;DHT22;21290;50.158;8.658;2022-07-22T00:38:13;18.40;99.90
35111;DHT22;21290;50.158;8.658;2022-07-22T00:40:40;18.40;99.90
35111;DHT22;21290;50.158;8.658;2022-07-22T00:43:17;18.40;99.90
35111;DHT22;21290;50.158;8.658;2022-07-22T00:45:46;18.30;99.90
35111;DHT22;21290;50.158;8.658;2022-07-22T00:48:19;18.30;99.90
35111;DHT22;21290;50.158;8.658;2022-07-22T00:50:56;18.30;99.90
35111;DHT22;21290;50.158;8.658;2022-07-22T00:53:26;18.30;99.90
35111;DHT22;21290;50.158;8.658;2022-07-22T00:55:53;18.20;99.90
35111;DHT22;21290;50.158;8.658;2022-07-22T00:58:20;18.20;99.90
35111;DHT22;21290;50.158;8.658;2022-07-22T01:00:51;18.30;99.90
35111;DHT22;21290;50.158;8.658;2022-07-22T01:03:18;18.30;99.90
35111;DHT22;21290;50.158;8.658;2022-07-22T01:05:44;18.20;99.90
35111;DHT22;21290;50.158;8.658;2022-07-22T01:08:12;18.20;99.90
35111;DHT22;21290;50.158;8.658;2022-07-22T01:10:39;18.30;99.90
35111;DHT22;21290;50.158;8.658;2022-07-22T01:13:15;18.20;99.90
35111;DHT22;21290;50.158;8.658;2022-07-22T01:16:08;18.20;99.90
35111;DHT22;21290;50.158;8.658;2022-07-22T01:18:37;18.10;99.90
35111;DHT22;21290;50.158;8.658;2022-07-22T01:21:13;18.20;99.90
35111;DHT22;21290;50.158;8.658;2022-07-22T01:23:42;18.10;99.90
35111;DHT22;21290;50.158;8.658;2022-07-22T01:26:09;18.10;99.90
35111;DHT22;21290;50.158;8.658;2022-07-22T01:28:37;18.00;99.90
35111;DHT22;21290;50.158;8.658;2022-07-22T01:31:04;18.00;99.90
35111;DHT22;21290;50.158;8.658;2022-07-22T01:33:31;18.00;99.90
35111;DHT22;21290;50.158;8.658;2022-07-22T01:35:58;18.00;99.90
35111;DHT22;21290;50.158;8.658;2022-07-22T01:38:25;18.00;99.90
35111;DHT22;21290;50.158;8.658;2022-07-22T01:40:52;18.00;99.90
35111;DHT22;21290;50.158;8.658;2022-07-22T01:43:19;18.00;99.90
35111;DHT22;21290;50.158;8.658;2022-07-22T01:45:48;17.90;99.90
35111;DHT22;21290;50.158;8.658;2022-07-22T01:48:16;17.90;99.90
35111;DHT22;21290;50.158;8.658;2022-07-22T01:50:43;18.00;99.90
35111;DHT22;21290;50.158;8.658;2022-07-22T01:53:10;17.90;99.90
35111;DHT22;21290;50.158;8.658;2022-07-22T01:55:37;17.90;99.90
35111;DHT22;21290;50.158;8.658;2022-07-22T01:58:04;17.90;99.90
35111;DHT22;21290;50.158;8.658;2022-07-22T02:00:32;17.90;99.90
35111;DHT22;21290;50.158;8.658;2022-07-22T02:02:59;17.80;99.90
35111;DHT22;21290;50.158;8.658;2022-07-22T02:05:25;17.80;99.90
35111;DHT22;21290;50.158;8.658;2022-07-22T02:07:52;17.80;99.90
35111;DHT22;21290;50.158;8.658;2022-07-22T02:10:19;17.80;99.90
35111;DHT22;21290;50.158;8.658;2022-07-22T02:12:45;17.70;99.90
35111;DHT22;21290;50.158;8.658;2022-07-22T02:15:12;17.70;99.90
35111;DHT22;21290;50.158;8.658;2022-07-22T02:17:38;17.70;99.90
35111;DHT22;21290;50.158;8.658;2022-07-22T02:20:06;17.60;99.90
35111;DHT22;21290;50.158;8.658;2022-07-22T02:22:33;17.60;99.90
35111;DHT22;21290;50.158;8.658;2022-07-22T02:24:59;17.60;99.90
35111;DHT22;21290;50.158;8.658;2022-07-22T02:27:27;17.60;99.90
35111;DHT22;21290;50.158;8.658;2022-07-22T02:29:54;17.60;99.90
35111;DHT22;21290;50.158;8.658;2022-07-22T02:32:29;17.60;99.90
35111;DHT22;21290;50.158;8.658;2022-07-22T02:34:56;17.50;99.90
35111;DHT22;21290;50.158;8.658;2022-07-22T02:37:23;17.60;99.90
35111;DHT22;21290;50.158;8.658;2022-07-22T02:39:51;17.60;99.90
35111;DHT22;21290;50.158;8.658;2022-07-22T02:42:18;17.60;99.90
35111;DHT22;21290;50.158;8.658;2022-07-22T02:44:44;17.60;99.90
35111;DHT22;21290;50.158;8.658;2022-07-22T02:47:11;17.60;99.90
35111;DHT22;21290;50.158;8.658;2022-07-22T02:49:38;17.60;99.90
35111;DHT22;21290;50.158;8.658;2022-07-22T02:52:04;17.60;99.90
35111;DHT22;21290;50.158;8.658;2022-07-22T02:54:31;17.60;99.90
35111;DHT22;21290;50.158;8.658;2022-07-22T02:56:58;17.60;99.90
35111;DHT22;21290;50.158;8.658;2022-07-22T02:59:25;17.60;99.90
35111;DHT22;21290;50.158;8.658;2022-07-22T03:01:51;17.60;99.90
35111;DHT22;21290;50.158;8.658;2022-07-22T03:04:18;17.70;99.90
35111;DHT22;21290;50.158;8.658;2022-07-22T03:06:48;17.70;99.90
35111;DHT22;21290;50.158;8.658;2022-07-22T03:09:14;17.70;99.90
35111;DHT22;21290;50.158;8.658;2022-07-22T03:11:41;17.80;99.90
35111;DHT22;21290;50.158;8.658;2022-07-22T03:14:08;17.90;99.90
35111;DHT22;21290;50.158;8.658;2022-07-22T03:16:36;18.00;99.90
35111;DHT22;21290;50.158;8.658;2022-07-22T03:19:03;18.10;99.90
35111;DHT22;21290;50.158;8.658;2022-07-22T03:21:32;18.20;99.90
35111;DHT22;21290;50.158;8.658;2022-07-22T03:24:00;18.20;99.90
35111;DHT22;21290;50.158;8.658;2022-07-22T03:26:26;18.30;99.90
35111;DHT22;21290;50.158;8.658;2022-07-22T03:28:59;18.40;99.90
35111;DHT22;21290;50.158;8.658;2022-07-22T03:31:26;18.40;99.90
35111;DHT22;21290;50.158;8.658;2022-07-22T03:33:53;18.40;99.90
35111;DHT22;21290;50.158;8.658;2022-07-22T03:36:20;18.50;99.90
35111;DHT22;21290;50.158;8.658;2022-07-22T03:38:47;18.50;99.90
35111;DHT22;21290;50.158;8.658;2022-07-22T03:41:13;18.50;99.90
35111;DHT22;21290;50.158;8.658;2022-07-22T03:43:41;18.60;99.90
35111;DHT22;21290;50.158;8.658;2022-07-22T03:46:08;18.60;99.90
35111;DHT22;21290;50.158;8.658;2022-07-22T03:48:38;18.50;99.90
35111;DHT22;21290;50.158;8.658;2022-07-22T03:51:05;18.60;99.90
35111;DHT22;21290;50.158;8.658;2022-07-22T03:53:32;18.60;99.90
35111;DHT22;21290;50.158;8.658;2022-07-22T03:55:59;18.60;99.90
35111;DHT22;21290;50.158;8.658;2022-07-22T03:58:26;18.60;99.90
35111;DHT22;21290;50.158;8.658;2022-07-22T04:00:54;18.60;99.90
35111;DHT22;21290;50.158;8.658;2022-07-22T04:03:21;18.70;99.90
35111;DHT22;21290;50.158;8.658;2022-07-22T04:05:48;18.70;99.90
35111;DHT22;21290;50.158;8.658;2022-07-22T04:08:16;18.70;99.90
35111;DHT22;21290;50.158;8.658;2022-07-22T04:10:44;18.70;99.90
35111;DHT22;21290;50.158;8.658;2022-07-22T04:13:11;18.80;99.90
35111;DHT22;21290;50.158;8.658;2022-07-22T04:15:41;18.80;99.90
35111;DHT22;21290;50.158;8.658;2022-07-22T04:18:07;18.80;99.90
35111;DHT22;21290;50.158;8.658;2022-07-22T04:20:34;18.90;99.90
35111;DHT22;21290;50.158;8.658;2022-07-22T04:23:18;18.90;99.90
35111;DHT22;21290;50.158;8.658;2022-07-22T04:25:47;18.90;99.90
35111;DHT22;21290;50.158;8.658;2022-07-22T04:28:14;19.00;99.90
35111;DHT22;21290;50.158;8.658;2022-07-22T04:30:40;19.00;99.90
35111;DHT22;21290;50.158;8.658;2022-07-22T04:33:07;19.00;99.90
35111;DHT22;21290;50.158;8.658;2022-07-22T04:35:34;19.00;99.90
35111;DHT22;21290;50.158;8.658;2022-07-22T04:38:01;19.10;99.90
35111;DHT22;21290;50.158;8.658;2022-07-22T04:40:28;19.20;99.90
35111;DHT22;21290;50.158;8.658;2022-07-22T04:42:55;19.20;99.90
35111;DHT22;21290;50.158;8.658;2022-07-22T04:45:21;19.20;99.90
35111;DHT22;21290;50.158;8.658;2022-07-22T04:47:48;19.20;99.90
35111;DHT22;21290;50.158;8.658;2022-07-22T04:50:15;19.30;99.90
35111;DHT22;21290;50.158;8.658;2022-07-22T04:52:41;19.30;99.90
35111;DHT22;21290;50.158;8.658;2022-07-22T04:55:15;19.40;99.90
35111;DHT22;21290;50.158;8.658;2022-07-22T04:57:41;19.50;99.90
35111;DHT22;21290;50.158;8.658;2022-07-22T05:00:08;19.60;99.90
35111;DHT22;21290;50.158;8.658;2022-07-22T05:02:35;19.60;99.90
35111;DHT22;21290;50.158;8.658;2022-07-22T05:05:02;19.60;99.90
35111;DHT22;21290;50.158;8.658;2022-07-22T05:07:29;19.50;99.90
35111;DHT22;21290;50.158;8.658;2022-07-22T05:09:55;19.50;99.90
35111;DHT22;21290;50.158;8.658;2022-07-22T05:12:22;19.50;99.90
35111;DHT22;21290;50.158;8.658;2022-07-22T05:14:48;19.50;99.90
35111;DHT22;21290;50.158;8.658;2022-07-22T05:17:24;19.60;99.90
35111;DHT22;21290;50.158;8.658;2022-07-22T05:19:52;19.90;99.90
35111;DHT22;21290;50.158;8.658;2022-07-22T05:22:19;20.20;99.90
35111;DHT22;21290;50.158;8.658;2022-07-22T05:24:46;20.60;99.90
35111;DHT22;21290;50.158;8.658;2022-07-22T05:27:13;20.80;99.90
35111;DHT22;21290;50.158;8.658;2022-07-22T05:29:40;21.00;99.90
35111;DHT22;21290;50.158;8.658;2022-07-22T05:32:07;21.30;99.90
35111;DHT22;21290;50.158;8.658;2022-07-22T05:34:33;21.40;99.90
35111;DHT22;21290;50.158;8.658;2022-07-22T05:37:00;21.60;99.90
35111;DHT22;21290;50.158;8.658;2022-07-22T05:39:27;21.60;99.90
35111;DHT22;21290;50.158;8.658;2022-07-22T05:41:53;21.50;99.90
35111;DHT22;21290;50.158;8.658;2022-07-22T05:44:21;21.50;99.90
35111;DHT22;21290;50.158;8.658;2022-07-22T05:46:48;21.60;99.90
35111;DHT22;21290;50.158;8.658;2022-07-22T05:49:15;21.60;99.90
35111;DHT22;21290;50.158;8.658;2022-07-22T05:51:42;21.70;99.90
35111;DHT22;21290;50.158;8.658;2022-07-22T05:54:08;21.80;99.90
35111;DHT22;21290;50.158;8.658;2022-07-22T05:56:35;21.80;99.90
35111;DHT22;21290;50.158;8.658;2022-07-22T05:59:02;21.90;99.90
35111;DHT22;21290;50.158;8.658;2022-07-22T06:01:28;22.00;99.90
35111;DHT22;21290;50.158;8.658;2022-07-22T06:03:55;22.10;99.90
35111;DHT22;21290;50.158;8.658;2022-07-22T06:06:22;22.10;99.90
35111;DHT22;21290;50.158;8.658;2022-07-22T06:08:49;22.20;99.90
35111;DHT22;21290;50.158;8.658;2022-07-22T06:11:24;22.40;99.90
35111;DHT22;21290;50.158;8.658;2022-07-22T06:13:51;22.50;99.90
35111;DHT22;21290;50.158;8.658;2022-07-22T06:16:27;22.50;99.90
35111;DHT22;21290;50.158;8.658;2022-07-22T06:18:53;22.40;99.90
35111;DHT22;21290;50.158;8.658;2022-07-22T06:21:20;22.30;99.90
35111;DHT22;21290;50.158;8.658;2022-07-22T06:23:47;22.20;99.90
35111;DHT22;21290;50.158;8.658;2022-07-22T06:26:14;22.10;99.90
35111;DHT22;21290;50.158;8.658;2022-07-22T06:28:40;21.90;99.90
35111;DHT22;21290;50.158;8.658;2022-07-22T06:31:07;21.90;99.90
35111;DHT22;21290;50.158;8.658;2022-07-22T06:33:34;21.90;99.90
35111;DHT22;21290;50.158;8.658;2022-07-22T06:36:00;21.90;99.90
35111;DHT22;21290;50.158;8.658;2022-07-22T06:38:27;22.10;99.90
35111;DHT22;21290;50.158;8.658;2022-07-22T06:41:01;22.40;99.90
35111;DHT22;21290;50.158;8.658;2022-07-22T06:43:28;22.60;99.90
35111;DHT22;21290;50.158;8.658;2022-07-22T06:45:55;22.80;99.90
35111;DHT22;21290;50.158;8.658;2022-07-22T06:48:22;22.90;99.90
35111;DHT22;21290;50.158;8.658;2022-07-22T06:50:49;23.00;99.90
35111;DHT22;21290;50.158;8.658;2022-07-22T06:53:19;23.30;99.90
35111;DHT22;21290;50.158;8.658;2022-07-22T06:55:47;23.50;99.90
35111;DHT22;21290;50.158;8.658;2022-07-22T06:58:14;23.60;99.90
35111;DHT22;21290;50.158;8.658;2022-07-22T07:00:40;23.50;99.90
35111;DHT22;21290;50.158;8.658;2022-07-22T07:03:24;23.50;99.90
35111;DHT22;21290;50.158;8.658;2022-07-22T07:06:02;23.60;99.90
35111;DHT22;21290;50.158;8.658;2022-07-22T07:08:47;23.80;99.90
35111;DHT22;21290;50.158;8.658;2022-07-22T07:11:18;24.20;99.90
35111;DHT22;21290;50.158;8.658;2022-07-22T07:13:55;24.40;99.90
35111;DHT22;21290;50.158;8.658;2022-07-22T07:16:36;24.50;99.90
35111;DHT22;21290;50.158;8.658;2022-07-22T07:19:07;24.30;99.90
35111;DHT22;21290;50.158;8.658;2022-07-22T07:21:34;24.30;99.90
35111;DHT22;21290;50.158;8.658;2022-07-22T07:24:15;24.50;99.90
35111;DHT22;21290;50.158;8.658;2022-07-22T07:26:50;24.80;99.90
35111;DHT22;21290;50.158;8.658;2022-07-22T07:29:19;25.10;99.90
35111;DHT22;21290;50.158;8.658;2022-07-22T07:32:20;25.10;99.90
35111;DHT22;21290;50.158;8.658;2022-07-22T07:34:59;25.10;99.20
35111;DHT22;21290;50.158;8.658;2022-07-22T07:37:29;24.80;99.30
35111;DHT22;21290;50.158;8.658;2022-07-22T07:40:05;24.40;99.80
35111;DHT22;21290;50.158;8.658;2022-07-22T07:42:56;24.40;99.90
35111;DHT22;21290;50.158;8.658;2022-07-22T07:45:47;24.50;99.90
35111;DHT22;21290;50.158;8.658;2022-07-22T07:48:47;24.90;99.90
35111;DHT22;21290;50.158;8.658;2022-07-22T07:51:41;25.30;99.30
35111;DHT22;21290;50.158;8.658;2022-07-22T07:54:32;25.50;99.00
35111;DHT22;21290;50.158;8.658;2022-07-22T07:57:23;25.60;98.70
35111;DHT22;21290;50.158;8.658;2022-07-22T08:00:18;25.80;98.70
35111;DHT22;21290;50.158;8.658;2022-07-22T08:03:29;26.10;98.50
35111;DHT22;21290;50.158;8.658;2022-07-22T08:06:23;26.00;97.50
35111;DHT22;21290;50.158;8.658;2022-07-22T08:09:17;26.00;97.90
35111;DHT22;21290;50.158;8.658;2022-07-22T08:12:08;25.60;97.60
35111;DHT22;21290;50.158;8.658;2022-07-22T08:15:04;25.30;98.50
35111;DHT22;21290;50.158;8.658;2022-07-22T08:17:57;25.60;98.80
35111;DHT22;21290;50.158;8.658;2022-07-22T08:20:57;26.10;97.80
35111;DHT22;21290;50.158;8.658;2022-07-22T08:23:48;26.80;96.80
35111;DHT22;21290;50.158;8.658;2022-07-22T08:26:39;27.50;95.80
35111;DHT22;21290;50.158;8.658;2022-07-22T08:29:40;28.30;94.70
35111;DHT22;21290;50.158;8.658;2022-07-22T08:32:48;28.90;93.50
35111;DHT22;21290;50.158;8.658;2022-07-22T08:35:41;29.70;92.30
35111;DHT22;21290;50.158;8.658;2022-07-22T08:38:52;30.60;90.70
35111;DHT22;21290;50.158;8.658;2022-07-22T08:41:45;33.10;86.40
35111;DHT22;21290;50.158;8.658;2022-07-22T08:44:19;35.90;76.70
35111;DHT22;21290;50.158;8.658;2022-07-22T08:46:48;37.10;69.10
35111;DHT22;21290;50.158;8.658;2022-07-22T08:49:21;38.00;65.20
35111;DHT22;21290;50.158;8.658;2022-07-22T08:51:48;38.70;62.00
35111;DHT22;21290;50.158;8.658;2022-07-22T08:54:27;39.00;60.10
35111;DHT22;21290;50.158;8.658;2022-07-22T08:57:01;39.60;57.50
35111;DHT22;21290;50.158;8.658;2022-07-22T08:59:27;39.00;56.50
35111;DHT22;21290;50.158;8.658;2022-07-22T09:02:12;39.00;56.20
35111;DHT22;21290;50.158;8.658;2022-07-22T09:04:52;39.40;55.80
35111;DHT22;21290;50.158;8.658;2022-07-22T09:07:43;40.40;54.70
35111;DHT22;21290;50.158;8.658;2022-07-22T09:10:12;40.80;53.80
35111;DHT22;21290;50.158;8.658;2022-07-22T09:13:01;41.40;52.80
35111;DHT22;21290;50.158;8.658;2022-07-22T09:15:39;42.40;51.90
35111;DHT22;21290;50.158;8.658;2022-07-22T09:18:22;42.40;50.60
35111;DHT22;21290;50.158;8.658;2022-07-22T09:20:58;42.30;50.00
35111;DHT22;21290;50.158;8.658;2022-07-22T09:23:39;42.60;49.40
35111;DHT22;21290;50.158;8.658;2022-07-22T09:26:34;43.00;49.30
35111;DHT22;21290;50.158;8.658;2022-07-22T09:29:08;43.40;48.50
35111;DHT22;21290;50.158;8.658;2022-07-22T09:31:44;42.90;47.90
35111;DHT22;21290;50.158;8.658;2022-07-22T09:34:43;42.10;49.00
35111;DHT22;21290;50.158;8.658;2022-07-22T09:37:11;41.10;47.50
35111;DHT22;21290;50.158;8.658;2022-07-22T09:39:38;40.40;49.10
35111;DHT22;21290;50.158;8.658;2022-07-22T09:42:44;40.30;49.60
35111;DHT22;21290;50.158;8.658;2022-07-22T09:45:28;40.30;49.40
35111;DHT22;21290;50.158;8.658;2022-07-22T09:48:03;40.70;49.20
35111;DHT22;21290;50.158;8.658;2022-07-22T09:50:33;41.30;48.70
35111;DHT22;21290;50.158;8.658;2022-07-22T09:53:04;41.30;49.40
35111;DHT22;21290;50.158;8.658;2022-07-22T09:55:51;40.70;48.20
35111;DHT22;21290;50.158;8.658;2022-07-22T09:58:26;40.40;48.70
35111;DHT22;21290;50.158;8.658;2022-07-22T10:01:05;40.80;49.60
35111;DHT22;21290;50.158;8.658;2022-07-22T10:03:35;41.30;48.80
35111;DHT22;21290;50.158;8.658;2022-07-22T10:06:40;42.10;48.70
35111;DHT22;21290;50.158;8.658;2022-07-22T10:09:35;41.80;47.90
35111;DHT22;21290;50.158;8.658;2022-07-22T10:12:07;40.70;48.10
35111;DHT22;21290;50.158;8.658;2022-07-22T10:14:36;40.00;48.20
35111;DHT22;21290;50.158;8.658;2022-07-22T10:17:07;39.30;49.40
35111;DHT22;21290;50.158;8.658;2022-07-22T10:19:35;39.10;48.30
35111;DHT22;21290;50.158;8.658;2022-07-22T10:25:12;38.60;49.50
35111;DHT22;21290;50.158;8.658;2022-07-22T10:28:03;38.60;50.00
35111;DHT22;21290;50.158;8.658;2022-07-22T10:30:37;38.90;49.60
35111;DHT22;21290;50.158;8.658;2022-07-22T10:33:18;39.80;48.90
35111;DHT22;21290;50.158;8.658;2022-07-22T10:36:00;39.90;49.10
35111;DHT22;21290;50.158;8.658;2022-07-22T10:38:32;40.80;48.60
35111;DHT22;21290;50.158;8.658;2022-07-22T10:41:05;41.70;47.10
35111;DHT22;21290;50.158;8.658;2022-07-22T10:46:29;42.20;46.50
35111;DHT22;21290;50.158;8.658;2022-07-22T10:49:10;42.60;46.70
35111;DHT22;21290;50.158;8.658;2022-07-22T10:51:37;41.50;46.00
35111;DHT22;21290;50.158;8.658;2022-07-22T10:54:03;41.40;46.50
35111;DHT22;21290;50.158;8.658;2022-07-22T10:56:35;41.50;47.20
35111;DHT22;21290;50.158;8.658;2022-07-22T11:01:32;40.50;46.60
35111;DHT22;21290;50.158;8.658;2022-07-22T11:06:48;40.80;46.90
35111;DHT22;21290;50.158;8.658;2022-07-22T11:09:17;40.60;47.20
35111;DHT22;21290;50.158;8.658;2022-07-22T11:11:49;40.70;47.20
35111;DHT22;21290;50.158;8.658;2022-07-22T11:16:47;41.00;46.90
35111;DHT22;21290;50.158;8.658;2022-07-22T11:19:19;40.90;46.80
35111;DHT22;21290;50.158;8.658;2022-07-22T11:21:50;40.90;46.10
35111;DHT22;21290;50.158;8.658;2022-07-22T11:24:22;40.80;46.70
35111;DHT22;21290;50.158;8.658;2022-07-22T11:26:50;40.20;46.70
35111;DHT22;21290;50.158;8.658;2022-07-22T11:31:58;39.90;48.20
35111;DHT22;21290;50.158;8.658;2022-07-22T11:34:25;40.30;47.60
35111;DHT22;21290;50.158;8.658;2022-07-22T11:36:54;40.90;47.30
35111;DHT22;21290;50.158;8.658;2022-07-22T11:39:25;41.30;46.30
35111;DHT22;21290;50.158;8.658;2022-07-22T11:41:54;41.50;46.40
35111;DHT22;21290;50.158;8.658;2022-07-22T11:44:24;41.50;46.10
35111;DHT22;21290;50.158;8.658;2022-07-22T11:46:51;41.10;46.50
35111;DHT22;21290;50.158;8.658;2022-07-22T11:49:21;41.30;46.30
35111;DHT22;21290;50.158;8.658;2022-07-22T11:51:51;40.80;46.30
35111;DHT22;21290;50.158;8.658;2022-07-22T11:54:18;40.30;46.70
35111;DHT22;21290;50.158;8.658;2022-07-22T11:56:52;40.10;47.00
35111;DHT22;21290;50.158;8.658;2022-07-22T11:59:27;40.30;46.70
35111;DHT22;21290;50.158;8.658;2022-07-22T12:01:55;39.90;46.30
35111;DHT22;21290;50.158;8.658;2022-07-22T12:04:24;39.00;47.20
35111;DHT22;21290;50.158;8.658;2022-07-22T12:06:53;38.40;48.20
35111;DHT22;21290;50.158;8.658;2022-07-22T12:09:34;37.70;48.60
35111;DHT22;21290;50.158;8.658;2022-07-22T12:12:02;37.10;49.80
35111;DHT22;21290;50.158;8.658;2022-07-22T12:14:31;36.40;49.50
35111;DHT22;21290;50.158;8.658;2022-07-22T12:17:28;35.70;51.00
35111;DHT22;21290;50.158;8.658;2022-07-22T12:20:31;35.40;51.90
35111;DHT22;21290;50.158;8.658;2022-07-22T12:22:58;35.10;51.60
35111;DHT22;21290;50.158;8.658;2022-07-22T12:25:26;34.70;52.60
35111;DHT22;21290;50.158;8.658;2022-07-22T12:28:00;34.50;51.20
35111;DHT22;21290;50.158;8.658;2022-07-22T12:30:27;33.70;53.40
35111;DHT22;21290;50.158;8.658;2022-07-22T12:32:55;33.40;54.00
35111;DHT22;21290;50.158;8.658;2022-07-22T12:35:25;33.20;54.00
35111;DHT22;21290;50.158;8.658;2022-07-22T12:37:53;32.80;53.00
35111;DHT22;21290;50.158;8.658;2022-07-22T12:40:21;32.40;53.50
35111;DHT22;21290;50.158;8.658;2022-07-22T12:43:05;32.20;53.60
35111;DHT22;21290;50.158;8.658;2022-07-22T12:45:35;31.80;54.00
35111;DHT22;21290;50.158;8.658;2022-07-22T12:50:41;31.20;55.40
35111;DHT22;21290;50.158;8.658;2022-07-22T12:53:14;31.10;54.50
35111;DHT22;21290;50.158;8.658;2022-07-22T12:58:28;30.80;54.60
35111;DHT22;21290;50.158;8.658;2022-07-22T13:03:34;30.50;56.40
35111;DHT22;21290;50.158;8.658;2022-07-22T13:06:03;30.40;55.50
35111;DHT22;21290;50.158;8.658;2022-07-22T13:08:34;30.30;55.90
35111;DHT22;21290;50.158;8.658;2022-07-22T13:11:12;30.30;55.80
35111;DHT22;21290;50.158;8.658;2022-07-22T13:13:38;30.40;55.90
35111;DHT22;21290;50.158;8.658;2022-07-22T13:16:06;30.60;56.50
35111;DHT22;21290;50.158;8.658;2022-07-22T13:18:33;30.80;56.40
35111;DHT22;21290;50.158;8.658;2022-07-22T13:21:00;31.10;56.60
35111;DHT22;21290;50.158;8.658;2022-07-22T13:23:26;31.30;56.50
35111;DHT22;21290;50.158;8.658;2022-07-22T13:25:53;31.30;54.90
35111;DHT22;21290;50.158;8.658;2022-07-22T13:28:22;31.10;54.30
35111;DHT22;21290;50.158;8.658;2022-07-22T13:30:48;31.20;55.90
35111;DHT22;21290;50.158;8.658;2022-07-22T13:33:15;31.30;56.10
35111;DHT22;21290;50.158;8.658;2022-07-22T13:35:43;31.30;56.50
35111;DHT22;21290;50.158;8.658;2022-07-22T13:38:10;31.20;56.60
35111;DHT22;21290;50.158;8.658;2022-07-22T13:40:42;31.10;56.50
35111;DHT22;21290;50.158;8.658;2022-07-22T13:43:23;31.00;56.60
35111;DHT22;21290;50.158;8.658;2022-07-22T13:45:50;30.90;56.20
35111;DHT22;21290;50.158;8.658;2022-07-22T13:48:18;30.80;55.90
35111;DHT22;21290;50.158;8.658;2022-07-22T13:50:52;30.60;56.30
35111;DHT22;21290;50.158;8.658;2022-07-22T13:53:18;30.20;56.30
35111;DHT22;21290;50.158;8.658;2022-07-22T13:55:45;30.10;56.90
35111;DHT22;21290;50.158;8.658;2022-07-22T13:58:11;30.20;57.30
35111;DHT22;21290;50.158;8.658;2022-07-22T14:00:40;30.30;57.70
35111;DHT22;21290;50.158;8.658;2022-07-22T14:03:07;30.40;57.10
35111;DHT22;21290;50.158;8.658;2022-07-22T14:05:34;30.40;58.20
35111;DHT22;21290;50.158;8.658;2022-07-22T14:08:00;30.50;57.50
35111;DHT22;21290;50.158;8.658;2022-07-22T14:10:27;30.50;57.50
35111;DHT22;21290;50.158;8.658;2022-07-22T14:12:53;30.40;57.50
35111;DHT22;21290;50.158;8.658;2022-07-22T14:15:21;30.20;57.00
35111;DHT22;21290;50.158;8.658;2022-07-22T14:17:48;30.30;57.60
35111;DHT22;21290;50.158;8.658;2022-07-22T14:20:15;30.30;57.90
35111;DHT22;21290;50.158;8.658;2022-07-22T14:22:42;30.30;58.10
35111;DHT22;21290;50.158;8.658;2022-07-22T14:25:10;30.40;58.10
35111;DHT22;21290;50.158;8.658;2022-07-22T14:27:36;30.20;57.80
35111;DHT22;21290;50.158;8.658;2022-07-22T14:30:03;30.20;58.20
35111;DHT22;21290;50.158;8.658;2022-07-22T14:32:30;30.30;58.00
35111;DHT22;21290;50.158;8.658;2022-07-22T14:34:57;30.30;58.30
35111;DHT22;21290;50.158;8.658;2022-07-22T14:37:23;30.20;58.40
35111;DHT22;21290;50.158;8.658;2022-07-22T14:40:05;30.20;58.60
35111;DHT22;21290;50.158;8.658;2022-07-22T14:43:10;30.30;58.70
35111;DHT22;21290;50.158;8.658;2022-07-22T14:45:57;30.20;57.90
35111;DHT22;21290;50.158;8.658;2022-07-22T14:48:24;30.30;58.00
35111;DHT22;21290;50.158;8.658;2022-07-22T14:50:57;30.30;57.50
35111;DHT22;21290;50.158;8.658;2022-07-22T14:53:51;30.20;58.40
35111;DHT22;21290;50.158;8.658;2022-07-22T14:56:17;30.20;58.60
35111;DHT22;21290;50.158;8.658;2022-07-22T14:58:44;30.20;58.50
35111;DHT22;21290;50.158;8.658;2022-07-22T15:01:11;30.10;58.70
35111;DHT22;21290;50.158;8.658;2022-07-22T15:03:40;30.10;59.20
35111;DHT22;21290;50.158;8.658;2022-07-22T15:06:07;30.00;59.10
35111;DHT22;21290;50.158;8.658;2022-07-22T15:08:34;30.10;59.20
35111;DHT22;21290;50.158;8.658;2022-07-22T15:11:00;30.10;58.50
35111;DHT22;21290;50.158;8.658;2022-07-22T15:13:27;30.10;58.00
35111;DHT22;21290;50.158;8.658;2022-07-22T15:15:55;30.00;57.90
35111;DHT22;21290;50.158;8.658;2022-07-22T15:18:22;29.90;58.00
35111;DHT22;21290;50.158;8.658;2022-07-22T15:20:49;30.00;59.00
35111;DHT22;21290;50.158;8.658;2022-07-22T15:23:16;30.00;59.10
35111;DHT22;21290;50.158;8.658;2022-07-22T15:25:43;30.00;59.30
35111;DHT22;21290;50.158;8.658;2022-07-22T15:28:14;29.90;59.40
35111;DHT22;21290;50.158;8.658;2022-07-22T15:31:03;29.90;59.60
35111;DHT22;21290;50.158;8.658;2022-07-22T15:33:31;29.80;59.80
35111;DHT22;21290;50.158;8.658;2022-07-22T15:36:06;29.80;59.90
35111;DHT22;21290;50.158;8.658;2022-07-22T15:38:34;29.70;59.10
35111;DHT22;21290;50.158;8.658;2022-07-22T15:41:02;29.60;58.90
35111;DHT22;21290;50.158;8.658;2022-07-22T15:43:30;29.60;59.50
35111;DHT22;21290;50.158;8.658;2022-07-22T15:45:57;29.60;59.90
35111;DHT22;21290;50.158;8.658;2022-07-22T15:48:23;29.60;59.60
35111;DHT22;21290;50.158;8.658;2022-07-22T15:50:50;29.50;59.90
35111;DHT22;21290;50.158;8.658;2022-07-22T15:53:17;29.40;59.90
35111;DHT22;21290;50.158;8.658;2022-07-22T15:55:46;29.30;59.80
35111;DHT22;21290;50.158;8.658;2022-07-22T15:58:13;29.20;60.00
35111;DHT22;21290;50.158;8.658;2022-07-22T16:00:59;29.20;60.30
35111;DHT22;21290;50.158;8.658;2022-07-22T16:03:26;29.20;60.30
35111;DHT22;21290;50.158;8.658;2022-07-22T16:05:54;29.20;60.30
35111;DHT22;21290;50.158;8.658;2022-07-22T16:08:22;29.10;60.40
35111;DHT22;21290;50.158;8.658;2022-07-22T16:10:49;29.10;60.70
35111;DHT22;21290;50.158;8.658;2022-07-22T16:13:16;29.10;60.80
35111;DHT22;21290;50.158;8.658;2022-07-22T16:15:42;29.00;61.20
35111;DHT22;21290;50.158;8.658;2022-07-22T16:18:09;29.10;60.80
35111;DHT22;21290;50.158;8.658;2022-07-22T16:20:38;29.20;60.90
35111;DHT22;21290;50.158;8.658;2022-07-22T16:23:05;29.20;60.70